Time;durP1;ratioP1;P1;durP2;ratioP2;P2;SDS_P1;SDS_P2;PMS_P1;PMS_P2;Temp;Humidity;BMP_temperature;BMP_pressure;BME280_temperature;BME280_humidity;BME280_pressure;Samples;Min_cycle;Max_cycle;Signal;HPM_P1;HPM_P2
2023/08/26 00:01:05;;;;;;;;;;;;;;;21.85;73.35;100419.22;3969967;29;20032;-68
2023/08/26 00:03:07;;;;;;;;;;;;;;;21.85;73.20;100409.06;3969941;29;20032;-68
2023/08/26 00:05:09;;;;;;;;;;;;;;;21.87;73.03;100406.06;3960492;29;20021;-68
2023/08/26 00:07:11;;;;;;;;;;;;;;;21.87;73.24;100411.56;3969659;29;20028;-69
2023/08/26 00:09:14;;;;;;;;;;;;;;;21.86;73.14;100405.22;3970497;29;19934;-68
2023/08/26 00:11:16;;;;;;;;;;;;;;;21.88;72.93;100403.03;3970016;29;20020;-68
2023/08/26 00:13:18;;;;;;;;;;;;;;;21.89;72.95;100401.94;3970885;29;20024;-68
2023/08/26 00:15:20;;;;;;;;;;;;;;;21.88;72.96;100397.56;3970003;29;20012;-69
2023/08/26 00:17:22;;;;;;;;;;;;;;;21.87;72.94;100398.63;3968721;29;20028;-68
2023/08/26 00:19:25;;;;;;;;;;;;;;;21.89;72.78;100399.19;3969130;29;20024;-69
2023/08/26 00:21:27;;;;;;;;;;;;;;;21.89;72.93;100398.38;3969820;29;20024;-68
2023/08/26 00:23:28;;;;;;;;;;;;;;;21.88;72.99;100396.69;3970418;29;20037;-68
2023/08/26 00:25:32;;;;;;;;;;;;;;;21.89;72.93;100401.94;3970157;29;20024;-68
2023/08/26 00:27:34;;;;;;;;;;;;;;;21.91;72.66;100394.28;3970172;29;20428;-68
2023/08/26 00:29:36;;;;;;;;;;;;;;;21.92;72.61;100387.66;3958238;29;19937;-68
2023/08/26 00:31:38;;;;;;;;;;;;;;;21.95;72.45;100391.81;3970017;29;20021;-68
2023/08/26 00:33:40;;;;;;;;;;;;;;;21.93;72.53;100383.84;3989215;29;20468;-68
2023/08/26 00:35:44;;;;;;;;;;;;;;;21.97;72.36;100389.63;3983480;29;20459;-68
2023/08/26 00:37:46;;;;;;;;;;;;;;;21.99;72.53;100383.88;3970331;29;20501;-69
2023/08/26 00:39:48;;;;;;;;;;;;;;;21.99;72.31;100384.72;3970365;29;20016;-69
2023/08/26 00:41:51;;;;;;;;;;;;;;;21.99;72.44;100387.47;3958807;29;20040;-68
2023/08/26 00:43:53;;;;;;;;;;;;;;;21.99;72.37;100376.47;3970288;29;20011;-68
2023/08/26 00:45:56;;;;;;;;;;;;;;;22.00;71.94;100363.53;3970484;29;20049;-68
2023/08/26 00:47:58;;;;;;;;;;;;;;;22.00;72.24;100364.38;3969625;29;20008;-68
2023/08/26 00:50:00;;;;;;;;;;;;;;;22.00;72.00;100366.28;3974944;29;20458;-68
2023/08/26 00:52:02;;;;;;;;;;;;;;;21.99;72.02;100353.63;3969331;29;20024;-68
2023/08/26 00:54:03;;;;;;;;;;;;;;;22.00;72.01;100363.53;3969257;29;20016;-69
2023/08/26 00:56:05;;;;;;;;;;;;;;;22.00;71.98;100371.78;3968813;29;20028;-68
2023/08/26 00:58:09;;;;;;;;;;;;;;;22.00;72.15;100360.78;3967082;29;20028;-68
2023/08/26 01:00:11;;;;;;;;;;;;;;;21.99;72.03;100350.88;3970091;29;20374;-69
2023/08/26 01:02:13;;;;;;;;;;;;;;;22.00;71.71;100360.78;3969236;29;20019;-69
2023/08/26 01:04:16;;;;;;;;;;;;;;;22.01;72.01;100360.53;3945660;30;19938;-68
2023/08/26 01:06:18;;;;;;;;;;;;;;;22.03;71.97;100349.28;3968371;29;20020;-69
2023/08/26 01:08:19;;;;;;;;;;;;;;;22.06;71.90;100359.75;3967989;29;20040;-68
2023/08/26 01:10:21;;;;;;;;;;;;;;;22.07;71.74;100356.75;3959586;29;19941;-68
2023/08/26 01:12:24;;;;;;;;;;;;;;;22.07;71.64;100356.75;3968879;29;20028;-69
2023/08/26 01:14:29;;;;;;;;;;;;;;;22.09;71.62;100356.47;3969238;29;20025;-69
2023/08/26 01:16:32;;;;;;;;;;;;;;;22.08;71.55;100374.06;3969416;29;20353;-69
2023/08/26 01:18:34;;;;;;;;;;;;;;;22.07;71.72;100373.22;3968072;29;20019;-69
2023/08/26 01:20:36;;;;;;;;;;;;;;;22.08;71.56;100379.56;3959886;29;20027;-69
2023/08/26 01:22:38;;;;;;;;;;;;;;;22.08;71.64;100374.88;3969588;29;20466;-68
2023/08/26 01:24:41;;;;;;;;;;;;;;;22.07;71.75;100383.38;3988630;29;20082;-68
2023/08/26 01:26:43;;;;;;;;;;;;;;;22.07;71.66;100387.00;3969533;29;20008;-68
2023/08/26 01:28:47;;;;;;;;;;;;;;;22.08;71.64;100371.31;3958978;29;20071;-68
2023/08/26 01:30:49;;;;;;;;;;;;;;;22.06;71.53;100362.50;3969148;29;20385;-69
2023/08/26 01:32:53;;;;;;;;;;;;;;;22.06;71.80;100362.50;3969215;29;20341;-69
2023/08/26 01:34:56;;;;;;;;;;;;;;;22.06;71.67;100370.75;3974327;29;20020;-69
2023/08/26 01:36:58;;;;;;;;;;;;;;;22.05;71.83;100369.94;3973361;29;20024;-69
2023/08/26 01:39:00;;;;;;;;;;;;;;;22.04;71.75;100371.00;3973702;29;20390;-69
2023/08/26 01:41:03;;;;;;;;;;;;;;;22.03;71.68;100372.09;3968203;29;20025;-69
2023/08/26 01:43:05;;;;;;;;;;;;;;;22.03;71.68;100368.53;3969753;29;20025;-68
2023/08/26 01:45:08;;;;;;;;;;;;;;;22.02;71.37;100375.94;3968629;29;20040;-68
2023/08/26 01:47:10;;;;;;;;;;;;;;;22.01;71.65;100377.03;3966512;29;20008;-69
2023/08/26 01:49:12;;;;;;;;;;;;;;;22.00;71.79;100367.13;3967244;29;20024;-68
2023/08/26 01:51:14;;;;;;;;;;;;;;;22.01;71.84;100354.22;3973578;29;20414;-69
2023/08/26 01:53:16;;;;;;;;;;;;;;;22.02;71.50;100358.59;3968910;29;20369;-68
2023/08/26 01:55:18;;;;;;;;;;;;;;;22.00;71.45;100356.13;3967698;29;20024;-68
2023/08/26 01:57:21;;;;;;;;;;;;;;;22.00;71.62;100338.81;3968997;29;20037;-68
2023/08/26 01:59:23;;;;;;;;;;;;;;;22.00;71.84;100347.06;3967659;29;20025;-69
2023/08/26 02:01:25;;;;;;;;;;;;;;;22.00;71.48;100347.06;3973736;29;20028;-69
2023/08/26 02:03:27;;;;;;;;;;;;;;;22.01;71.54;100338.53;3967136;29;20476;-68
2023/08/26 02:05:29;;;;;;;;;;;;;;;22.02;71.51;100342.97;3967071;29;20044;-68
2023/08/26 02:07:31;;;;;;;;;;;;;;;22.03;71.54;100338.28;3969017;29;20055;-68
2023/08/26 02:09:34;;;;;;;;;;;;;;;22.02;71.41;100348.47;3965919;29;20024;-69
2023/08/26 02:11:36;;;;;;;;;;;;;;;22.02;71.44;100345.72;3969072;29;19934;-68
2023/08/26 02:13:39;;;;;;;;;;;;;;;22.01;71.50;100343.22;3958409;29;20024;-69
2023/08/26 02:15:43;;;;;;;;;;;;;;;21.99;71.56;100345.38;3967161;29;20361;-69
2023/08/26 02:17:45;;;;;;;;;;;;;;;21.96;71.33;100333.81;3958955;29;20037;-69
2023/08/26 02:19:47;;;;;;;;;;;;;;;21.95;71.32;100331.34;3968099;29;20012;-69
2023/08/26 02:21:49;;;;;;;;;;;;;;;21.93;71.36;100334.34;3967584;29;19972;-69
2023/08/26 02:23:55;;;;;;;;;;;;;;;21.94;71.65;100329.66;3966306;29;20028;-68
2023/08/26 02:25:57;;;;;;;;;;;;;;;21.94;71.69;100327.78;3966231;29;20040;-69
2023/08/26 02:27:59;;;;;;;;;;;;;;;21.93;71.50;100323.34;3973311;29;20448;-68
2023/08/26 02:30:03;;;;;;;;;;;;;;;21.94;71.79;100326.91;3973125;29;20017;-69
2023/08/26 02:32:05;;;;;;;;;;;;;;;21.93;71.60;100326.09;3973482;29;20836;-68
2023/08/26 02:34:07;;;;;;;;;;;;;;;21.92;71.23;100324.44;3981573;29;20024;-69
2023/08/26 02:36:10;;;;;;;;;;;;;;;21.92;71.46;100315.38;3981761;29;20028;-69
2023/08/26 02:38:12;;;;;;;;;;;;;;;21.91;71.51;100306.31;3968455;29;20349;-69
2023/08/26 02:40:15;;;;;;;;;;;;;;;21.91;71.58;100299.94;3957970;29;20024;-69
2023/08/26 02:42:17;;;;;;;;;;;;;;;21.93;71.64;100306.03;3965903;29;20031;-69
2023/08/26 02:44:18;;;;;;;;;;;;;;;21.94;71.52;100311.28;3966454;29;20016;-69
2023/08/26 02:46:22;;;;;;;;;;;;;;;21.94;71.45;100307.69;3965241;29;19929;-69
2023/08/26 02:48:24;;;;;;;;;;;;;;;21.94;71.32;100310.44;3966373;29;20019;-69
2023/08/26 02:50:26;;;;;;;;;;;;;;;21.94;71.28;100310.44;3972654;29;20012;-69
2023/08/26 02:52:29;;;;;;;;;;;;;;;21.93;71.36;100297.78;3968099;29;19986;-68
2023/08/26 02:54:31;;;;;;;;;;;;;;;21.91;71.22;100295.31;3981744;29;20015;-69
2023/08/26 02:56:33;;;;;;;;;;;;;;;21.91;71.62;100300.81;3988385;29;20055;-68
2023/08/26 02:58:35;;;;;;;;;;;;;;;21.90;71.48;100307.38;3970963;29;20049;-68
2023/08/26 03:00:36;;;;;;;;;;;;;;;21.89;71.38;100299.41;3958412;29;20025;-68
2023/08/26 03:02:39;;;;;;;;;;;;;;;21.88;71.42;100303.22;3968816;29;20371;-69
2023/08/26 03:04:43;;;;;;;;;;;;;;;21.88;71.68;100305.97;3973140;29;20020;-69
2023/08/26 03:06:45;;;;;;;;;;;;;;;21.87;71.60;100291.41;3957984;30;20563;-68
2023/08/26 03:08:47;;;;;;;;;;;;;;;21.88;71.89;100292.22;3968376;29;20013;-69
2023/08/26 03:10:56;;;;;;;;;;;;;;;21.88;71.90;100290.34;3968205;29;20382;-69
2023/08/26 03:12:59;;;;;;;;;;;;;;;21.90;71.90;100296.38;3968168;29;19929;-68
2023/08/26 03:15:01;;;;;;;;;;;;;;;21.90;71.58;100290.88;3966475;29;20476;-68
2023/08/26 03:17:03;;;;;;;;;;;;;;;21.90;71.47;100295.56;3967961;29;20360;-69
2023/08/26 03:19:07;;;;;;;;;;;;;;;21.90;71.52;100299.13;3988022;29;20023;-68
2023/08/26 03:21:09;;;;;;;;;;;;;;;21.87;71.78;100307.09;3981435;29;20400;-70
2023/08/26 03:23:11;;;;;;;;;;;;;;;21.85;71.79;100317.50;3968443;29;20024;-68
2023/08/26 03:25:13;;;;;;;;;;;;;;;21.78;72.24;100320.47;3968556;29;20012;-69
2023/08/26 03:27:16;;;;;;;;;;;;;;;21.72;72.55;100327.03;3973270;29;20368;-69
2023/08/26 03:29:18;;;;;;;;;;;;;;;21.70;72.61;100330.03;3968390;29;20357;-68
2023/08/26 03:31:20;;;;;;;;;;;;;;;21.68;72.53;100331.41;3966605;29;20365;-68
2023/08/26 03:33:24;;;;;;;;;;;;;;;21.68;72.67;100334.16;3973516;29;19960;-69
2023/08/26 03:35:27;;;;;;;;;;;;;;;21.64;72.89;100327.50;3966537;29;20384;-69
2023/08/26 03:37:29;;;;;;;;;;;;;;;21.62;72.73;100322.28;3969954;29;20024;-69
2023/08/26 03:39:31;;;;;;;;;;;;;;;21.60;72.79;100324.47;3968777;29;20024;-69
2023/08/26 03:41:35;;;;;;;;;;;;;;;21.59;72.86;100318.13;3957880;29;20027;-69
2023/08/26 03:43:36;;;;;;;;;;;;;;;21.57;73.07;100317.56;3943406;30;20042;-68
2023/08/26 03:45:39;;;;;;;;;;;;;;;21.59;73.07;100311.78;3965021;29;20028;-69
2023/08/26 03:47:41;;;;;;;;;;;;;;;21.59;73.04;100323.59;3967920;29;20036;-69
2023/08/26 03:49:43;;;;;;;;;;;;;;;21.57;73.20;100323.03;3968373;29;20055;-69
2023/08/26 03:51:46;;;;;;;;;;;;;;;21.59;73.43;100331.03;3967592;29;20016;-69
2023/08/26 03:53:48;;;;;;;;;;;;;;;21.54;73.56;100320.81;3967862;29;19936;-69
2023/08/26 03:55:50;;;;;;;;;;;;;;;21.52;73.52;100328.50;3960642;29;20499;-69
2023/08/26 03:57:53;;;;;;;;;;;;;;;21.50;73.47;100318.84;3954500;29;20382;-69
2023/08/26 03:59:55;;;;;;;;;;;;;;;21.47;73.60;100317.41;3975466;29;20512;-68
2023/08/26 04:01:56;;;;;;;;;;;;;;;21.45;73.67;100303.13;3969224;29;20458;-69
2023/08/26 04:03:58;;;;;;;;;;;;;;;21.47;73.59;100306.41;3968089;29;19940;-69
2023/08/26 04:06:01;;;;;;;;;;;;;;;21.47;74.17;100306.41;3968705;29;20015;-69
2023/08/26 04:08:05;;;;;;;;;;;;;;;21.48;73.77;100304.53;3968785;29;20484;-69
2023/08/26 04:10:08;;;;;;;;;;;;;;;21.49;73.89;100314.44;3960642;29;20020;-69
2023/08/26 04:12:10;;;;;;;;;;;;;;;21.51;73.64;100318.59;3960282;29;20020;-68
2023/08/26 04:14:12;;;;;;;;;;;;;;;21.54;73.69;100311.75;3974796;29;19940;-68
2023/08/26 04:16:19;;;;;;;;;;;;;;;21.54;73.48;100293.34;3975605;29;20020;-68
2023/08/26 04:18:20;;;;;;;;;;;;;;;21.54;73.61;100303.50;3953404;29;20041;-69
2023/08/26 04:20:22;;;;;;;;;;;;;;;21.52;73.68;100300.19;3968892;29;20646;-68
2023/08/26 04:22:24;;;;;;;;;;;;;;;21.51;73.77;100304.03;3969525;29;20370;-69
2023/08/26 04:24:28;;;;;;;;;;;;;;;21.51;73.86;100296.63;3968836;29;20008;-69
2023/08/26 04:26:30;;;;;;;;;;;;;;;21.50;74.01;100294.13;3967845;29;20504;-69
2023/08/26 04:28:32;;;;;;;;;;;;;;;21.49;74.06;100304.28;3969501;29;20020;-68
2023/08/26 04:30:36;;;;;;;;;;;;;;;21.49;74.07;100301.53;3953793;29;20016;-68
2023/08/26 04:32:37;;;;;;;;;;;;;;;21.48;74.37;100297.09;3954160;29;20031;-68
2023/08/26 04:34:40;;;;;;;;;;;;;;;21.48;74.54;100291.59;3970808;29;19940;-68
2023/08/26 04:36:44;;;;;;;;;;;;;;;21.47;74.36;100292.69;3970073;29;20016;-68
2023/08/26 04:38:46;;;;;;;;;;;;;;;21.48;74.54;100297.09;3970497;29;20817;-69
2023/08/26 04:40:50;;;;;;;;;;;;;;;21.49;74.32;100292.47;3973934;29;20032;-68
2023/08/26 04:42:53;;;;;;;;;;;;;;;21.50;74.52;100294.94;3968541;29;20024;-68
2023/08/26 04:44:55;;;;;;;;;;;;;;;21.51;74.36;100306.78;3969031;29;20056;-68
2023/08/26 04:46:57;;;;;;;;;;;;;;;21.50;74.84;100316.09;3967152;29;20029;-68
2023/08/26 04:48:59;;;;;;;;;;;;;;;21.47;74.99;100314.66;3968260;29;20048;-67
2023/08/26 04:51:02;;;;;;;;;;;;;;;21.44;75.58;100309.69;3952450;29;20419;-68
2023/08/26 04:53:04;;;;;;;;;;;;;;;21.42;75.62;100320.94;3974610;29;20023;-68
2023/08/26 04:55:06;;;;;;;;;;;;;;;21.41;75.37;100332.19;3968662;29;19929;-68
2023/08/26 04:57:09;;;;;;;;;;;;;;;21.40;75.55;100336.03;3974584;29;20019;-68
2023/08/26 04:59:11;;;;;;;;;;;;;;;21.41;75.22;100340.41;3970287;29;20032;-68
2023/08/26 05:01:13;;;;;;;;;;;;;;;21.43;75.54;100352.00;3959949;29;20012;-68
2023/08/26 05:03:15;;;;;;;;;;;;;;;21.43;75.31;100344.59;3969685;29;20016;-67
2023/08/26 05:05:17;;;;;;;;;;;;;;;21.44;75.53;100345.41;3968571;29;20031;-67
2023/08/26 05:07:19;;;;;;;;;;;;;;;21.42;75.50;100355.81;3960246;29;20025;-67
2023/08/26 05:09:21;;;;;;;;;;;;;;;21.41;75.84;100354.16;3970808;29;20024;-67
2023/08/26 05:11:23;;;;;;;;;;;;;;;21.39;75.79;100356.34;3968405;29;20024;-68
2023/08/26 05:13:27;;;;;;;;;;;;;;;21.39;76.00;100356.34;3969669;29;20020;-68
2023/08/26 05:15:29;;;;;;;;;;;;;;;21.36;76.57;100346.72;3968779;29;19933;-68
2023/08/26 05:17:31;;;;;;;;;;;;;;;21.34;76.20;100345.31;3968205;29;20040;-68
2023/08/26 05:19:34;;;;;;;;;;;;;;;21.31;76.29;100338.41;3969122;29;20032;-69
2023/08/26 05:21:37;;;;;;;;;;;;;;;21.31;76.72;100338.41;3969080;29;20040;-69
2023/08/26 05:23:39;;;;;;;;;;;;;;;21.29;76.79;100337.84;3966322;29;20461;-68
2023/08/26 05:25:44;;;;;;;;;;;;;;;21.31;76.42;100334.84;3967939;29;20445;-68
2023/08/26 05:27:46;;;;;;;;;;;;;;;21.32;76.39;100337.34;3974110;29;20028;-68
2023/08/26 05:29:52;;;;;;;;;;;;;;;21.33;76.60;100343.66;3968118;29;20536;-69
2023/08/26 05:31:56;;;;;;;;;;;;;;;21.31;77.33;100362.31;3974295;29;20048;-69
2023/08/26 05:33:59;;;;;;;;;;;;;;;21.28;nan;100371.06;3971608;29;20027;-69
2023/08/26 05:36:01;;;;;;;;;;;;;;;21.24;78.26;100379.81;3967932;29;19939;-69
2023/08/26 05:38:03;;;;;;;;;;;;;;;21.20;78.61;100389.63;3969868;29;20020;-69
2023/08/26 05:40:06;;;;;;;;;;;;;;;21.18;78.71;100402.81;3952580;29;20032;-69
2023/08/26 05:42:09;;;;;;;;;;;;;;;21.16;79.31;100404.13;3958987;29;20029;-69
2023/08/26 05:44:11;;;;;;;;;;;;;;;21.15;79.20;100399.75;3959427;29;20025;-70
2023/08/26 05:46:14;;;;;;;;;;;;;;;21.12;79.34;100392.84;3966871;29;20023;-69
2023/08/26 05:48:16;;;;;;;;;;;;;;;21.12;78.71;100392.84;3959443;29;20118;-69
2023/08/26 05:50:18;;;;;;;;;;;;;;;21.13;79.25;100402.75;3966889;29;20082;-69
2023/08/26 05:52:20;;;;;;;;;;;;;;;21.13;79.25;100408.25;3973986;29;20786;-69
2023/08/26 05:54:22;;;;;;;;;;;;;;;21.14;79.18;100414.56;3967721;29;20028;-69
2023/08/26 05:56:24;;;;;;;;;;;;;;;21.13;81.14;100426.63;3966803;29;20476;-69
2023/08/26 05:58:26;;;;;;;;;;;;;;;21.10;81.20;100427.13;3968859;29;20032;-69
2023/08/26 06:00:28;;;;;;;;;;;;;;;21.08;81.46;100429.31;3972554;29;20011;-69
2023/08/26 06:02:32;;;;;;;;;;;;;;;21.05;81.23;100422.44;3967428;29;20045;-67
2023/08/26 06:04:34;;;;;;;;;;;;;;;21.06;81.89;100421.31;3959697;29;19968;-69
2023/08/26 06:06:36;;;;;;;;;;;;;;;21.05;82.20;100416.94;3967369;29;20381;-69
2023/08/26 06:08:38;;;;;;;;;;;;;;;21.03;82.64;100428.16;3965700;29;20072;-69
2023/08/26 06:10:40;;;;;;;;;;;;;;;21.02;82.50;100423.75;3966864;29;20016;-69
2023/08/26 06:12:42;;;;;;;;;;;;;;;21.04;81.63;100418.00;3973374;29;20024;-69
2023/08/26 06:14:49;;;;;;;;;;;;;;;21.07;81.38;100406.53;3966800;29;20028;-66
2023/08/26 06:16:51;;;;;;;;;;;;;;;21.12;80.60;100405.75;3966496;29;20396;-68
2023/08/26 06:18:55;;;;;;;;;;;;;;;21.15;80.31;100397.81;3968616;29;20017;-69
2023/08/26 06:20:57;;;;;;;;;;;;;;;21.21;80.08;100398.72;3967039;29;20389;-69
2023/08/26 06:22:59;;;;;;;;;;;;;;;21.24;79.63;100404.53;3973686;29;20016;-69
2023/08/26 06:25:03;;;;;;;;;;;;;;;21.29;79.26;100405.69;3981454;29;20028;-69
2023/08/26 06:27:06;;;;;;;;;;;;;;;21.32;79.23;100405.19;3981644;29;20020;-68
2023/08/26 06:29:08;;;;;;;;;;;;;;;21.32;80.59;100414.25;3987577;29;20020;-69
2023/08/26 06:31:12;;;;;;;;;;;;;;;21.32;80.54;100424.41;3979577;29;20028;-69
2023/08/26 06:33:18;;;;;;;;;;;;;;;21.33;81.40;100434.28;3981645;29;20107;-69
2023/08/26 06:35:26;;;;;;;;;;;;;;;21.32;80.89;100429.91;3973109;29;20498;-69
2023/08/26 06:37:28;;;;;;;;;;;;;;;21.32;82.12;100441.69;3973446;29;19936;-68
2023/08/26 06:39:31;;;;;;;;;;;;;;;21.30;81.84;100430.16;3982499;29;20015;-69
2023/08/26 06:41:33;;;;;;;;;;;;;;;21.33;82.10;100437.03;3967310;29;20028;-70
2023/08/26 06:43:35;;;;;;;;;;;;;;;21.33;82.43;100440.63;3969239;29;20028;-69
2023/08/26 06:45:38;;;;;;;;;;;;;;;21.33;82.79;100459.84;3972583;29;19940;-69
2023/08/26 06:47:41;;;;;;;;;;;;;;;21.35;82.73;100462.34;3965957;29;20024;-68
2023/08/26 06:49:43;;;;;;;;;;;;;;;21.35;83.44;100457.69;3968400;29;20023;-69
2023/08/26 06:51:47;;;;;;;;;;;;;;;21.34;83.04;100468.91;3973052;29;20497;-70
2023/08/26 06:53:49;;;;;;;;;;;;;;;21.35;82.77;100471.41;3968367;29;20012;-69
2023/08/26 06:55:53;;;;;;;;;;;;;;;21.37;82.88;100473.91;3973517;29;20019;-69
2023/08/26 06:57:55;;;;;;;;;;;;;;;21.37;82.38;100479.41;3968770;29;19980;-69
2023/08/26 06:59:57;;;;;;;;;;;;;;;21.38;83.50;100475.56;3969049;29;20039;-68
2023/08/26 07:01:59;;;;;;;;;;;;;;;21.38;82.85;100475.56;3967629;29;20020;-68
2023/08/26 07:04:04;;;;;;;;;;;;;;;21.39;82.28;100471.72;3969300;29;20020;-69
2023/08/26 07:06:06;;;;;;;;;;;;;;;21.40;82.22;100471.47;3969166;29;20029;-69
2023/08/26 07:08:10;;;;;;;;;;;;;;;21.43;82.36;100464.63;3968993;29;20432;-69
2023/08/26 07:10:15;;;;;;;;;;;;;;;21.45;81.66;100456.13;3968652;29;20381;-68
2023/08/26 07:12:17;;;;;;;;;;;;;;;21.48;81.04;100452.88;3968839;29;20020;-69
2023/08/26 07:14:19;;;;;;;;;;;;;;;21.50;82.36;100461.72;3967860;29;20034;-69
2023/08/26 07:16:21;;;;;;;;;;;;;;;21.50;81.47;100468.03;3968958;29;20055;-68
2023/08/26 07:18:23;;;;;;;;;;;;;;;21.53;82.89;100472.19;3968613;29;20394;-69
2023/08/26 07:20:25;;;;;;;;;;;;;;;21.52;83.61;100465.88;3968543;29;20433;-69
2023/08/26 07:22:27;;;;;;;;;;;;;;;21.51;83.19;100469.72;3967943;29;20468;-70
2023/08/26 07:24:30;;;;;;;;;;;;;;;21.53;83.47;100466.69;3968444;29;20024;-68
2023/08/26 07:26:33;;;;;;;;;;;;;;;21.56;83.99;100463.44;3967127;29;20028;-69
2023/08/26 07:28:38;;;;;;;;;;;;;;;21.57;84.13;100468.69;3965966;29;19929;-69
2023/08/26 07:30:41;;;;;;;;;;;;;;;21.58;84.12;100475.84;3971413;29;20036;-68
2023/08/26 07:32:43;;;;;;;;;;;;;;;21.60;83.59;100470.91;3970077;29;20043;-69
2023/08/26 07:34:44;;;;;;;;;;;;;;;21.64;83.82;100478.66;3969894;29;20650;-69
2023/08/26 07:36:46;;;;;;;;;;;;;;;21.65;84.68;100481.13;3971099;29;20028;-69
2023/08/26 07:38:49;;;;;;;;;;;;;;;21.67;84.61;100484.44;3974895;29;20475;-69
2023/08/26 07:40:54;;;;;;;;;;;;;;;21.67;85.08;100476.22;3968558;29;20058;-68
2023/08/26 07:42:58;;;;;;;;;;;;;;;21.67;85.45;100483.63;3971560;29;20013;-69
2023/08/26 07:45:12;;;;;;;;;;;;;;;21.68;86.04;100482.56;3970592;29;19980;-69
2023/08/26 07:47:18;;;;;;;;;;;;;;;21.67;85.13;100487.19;3960441;29;19930;-69
2023/08/26 07:49:20;;;;;;;;;;;;;;;21.68;85.90;100483.38;3971252;29;20032;-69
2023/08/26 07:51:22;;;;;;;;;;;;;;;21.68;85.40;100480.63;3970791;29;20019;-69
2023/08/26 07:53:24;;;;;;;;;;;;;;;21.69;86.56;100490.53;3970077;29;20020;-69
2023/08/26 07:55:26;;;;;;;;;;;;;;;21.71;86.49;100495.78;3971425;29;20020;-69
2023/08/26 07:57:32;;;;;;;;;;;;;;;21.70;86.79;100494.09;3971435;29;20089;-70
2023/08/26 07:59:38;;;;;;;;;;;;;;;21.72;86.43;100506.53;3970920;29;20028;-69
2023/08/26 08:01:43;;;;;;;;;;;;;;;21.73;86.50;100499.09;3971338;29;20496;-70
2023/08/26 08:03:45;;;;;;;;;;;;;;;21.74;86.46;100501.59;3970259;29;19976;-70
2023/08/26 08:05:47;;;;;;;;;;;;;;;21.75;86.66;100502.41;3970627;29;20015;-70
2023/08/26 08:07:49;;;;;;;;;;;;;;;21.75;86.41;100494.16;3970684;29;20016;-70
2023/08/26 08:09:53;;;;;;;;;;;;;;;21.77;85.84;100502.97;3960619;29;20032;-70
2023/08/26 08:11:55;;;;;;;;;;;;;;;21.78;85.83;100504.63;3973414;29;20020;-70
2023/08/26 08:13:58;;;;;;;;;;;;;;;21.80;86.00;100498.88;3970876;29;20029;-70
2023/08/26 08:16:00;;;;;;;;;;;;;;;21.78;86.50;100491.72;3972369;29;20116;-69
2023/08/26 08:18:03;;;;;;;;;;;;;;;21.79;87.03;100487.06;3970054;29;20036;-70
2023/08/26 08:20:06;;;;;;;;;;;;;;;21.78;87.16;100480.72;3969521;29;20366;-69
2023/08/26 08:22:06;;;;;;;;;;;;;;;21.78;86.70;100477.16;3969778;29;20025;-70
2023/08/26 08:24:09;;;;;;;;;;;;;;;21.80;85.14;100476.91;3970563;29;19929;-67
2023/08/26 08:26:12;;;;;;;;;;;;;;;21.82;84.44;100478.31;3970215;29;20032;-67
2023/08/26 08:28:14;;;;;;;;;;;;;;;21.85;85.28;100488.78;3969020;29;19967;-68
2023/08/26 08:30:19;;;;;;;;;;;;;;;21.88;86.00;100481.91;3970181;29;20040;-68
2023/08/26 08:32:22;;;;;;;;;;;;;;;21.90;86.31;100485.25;3975179;29;19972;-68
2023/08/26 08:34:27;;;;;;;;;;;;;;;21.89;86.65;100489.91;3970042;29;20372;-68
2023/08/26 08:36:29;;;;;;;;;;;;;;;21.89;86.58;100484.41;3970521;29;20033;-69
2023/08/26 08:38:31;;;;;;;;;;;;;;;21.89;86.94;100487.16;3970704;29;20036;-69
2023/08/26 08:40:33;;;;;;;;;;;;;;;21.90;86.42;100483.34;3969235;29;20025;-69
2023/08/26 08:42:35;;;;;;;;;;;;;;;21.93;86.75;100502.06;3969673;29;20033;-69
2023/08/26 08:44:39;;;;;;;;;;;;;;;21.94;86.79;100480.88;3970030;29;20040;-69
2023/08/26 08:46:43;;;;;;;;;;;;;;;21.95;86.82;100494.38;3969326;29;20476;-69
2023/08/26 08:48:45;;;;;;;;;;;;;;;21.99;87.05;100505.72;3969119;29;20032;-68
2023/08/26 08:50:46;;;;;;;;;;;;;;;22.01;87.22;100494.44;3969196;29;20048;-69
2023/08/26 08:52:48;;;;;;;;;;;;;;;22.03;86.90;100492.25;3960232;29;20016;-68
2023/08/26 08:54:50;;;;;;;;;;;;;;;22.05;86.54;100484.56;3970147;29;20584;-68
2023/08/26 08:56:53;;;;;;;;;;;;;;;22.07;86.51;100483.25;3970021;29;20025;-69
2023/08/26 08:58:57;;;;;;;;;;;;;;;22.09;86.31;100483.78;3971436;29;20575;-73
2023/08/26 09:01:10;;;;;;;;;;;;;;;22.10;86.04;100482.72;3969761;29;20016;-73
2023/08/26 09:03:15;;;;;;;;;;;;;;;22.10;86.15;100479.97;3969542;29;20036;-73
2023/08/26 09:05:20;;;;;;;;;;;;;;;22.11;85.95;100489.84;3969588;29;20024;-74
2023/08/26 09:07:26;;;;;;;;;;;;;;;22.11;86.17;100481.59;3969332;29;20025;-72
2023/08/26 09:09:31;;;;;;;;;;;;;;;22.16;86.14;100477.25;3970249;29;19960;-73
2023/08/26 09:11:38;;;;;;;;;;;;;;;22.18;85.56;100477.81;3969497;29;20044;-73
2023/08/26 09:13:40;;;;;;;;;;;;;;;22.21;85.29;100475.41;3968998;29;20016;-72
2023/08/26 09:15:43;;;;;;;;;;;;;;;22.25;85.18;100475.69;3967747;29;20036;-72
2023/08/26 09:17:45;;;;;;;;;;;;;;;22.27;85.16;100468.84;3969383;29;20028;-74
2023/08/26 09:19:58;;;;;;;;;;;;;;;22.33;84.84;100478.00;3969122;29;20289;-72
2023/08/26 09:22:00;;;;;;;;;;;;;;;22.37;83.94;100481.06;3970300;29;19929;-72
2023/08/26 09:24:04;;;;;;;;;;;;;;;22.42;83.47;100483.84;3967586;29;19983;-73
2023/08/26 09:26:16;;;;;;;;;;;;;;;22.45;82.89;100483.31;3969277;29;20021;-70
2023/08/26 09:28:19;;;;;;;;;;;;;;;22.48;82.84;100497.38;3967208;29;20476;-71
2023/08/26 09:30:25;;;;;;;;;;;;;;;22.52;82.88;100494.09;3968705;29;20036;-72
2023/08/26 09:32:38;;;;;;;;;;;;;;;22.56;82.63;100501.56;3968697;29;20024;-73
2023/08/26 09:34:41;;;;;;;;;;;;;;;22.59;81.96;100490.03;3974180;29;20367;-73
2023/08/26 09:36:44;;;;;;;;;;;;;;;22.61;81.77;100489.78;3969535;29;20644;-73
2023/08/26 09:38:49;;;;;;;;;;;;;;;22.63;81.28;100491.19;3969702;29;20016;-73
2023/08/26 09:40:56;;;;;;;;;;;;;;;22.67;81.16;100489.53;3969031;29;20397;-72
2023/08/26 09:43:03;;;;;;;;;;;;;;;22.72;80.47;100488.75;3968682;29;20016;-72
2023/08/26 09:45:07;;;;;;;;;;;;;;;22.78;80.36;100484.13;3969093;29;20032;-73
2023/08/26 09:47:12;;;;;;;;;;;;;;;22.82;80.26;100477.81;3969301;29;20112;-71
2023/08/26 09:49:15;;;;;;;;;;;;;;;22.88;79.59;100486.09;3967367;29;20024;-72
2023/08/26 09:51:32;;;;;;;;;;;;;;;22.92;78.61;100488.06;3969002;29;20036;-73
2023/08/26 09:53:38;;;;;;;;;;;;;;;22.97;78.83;100503.78;3968439;29;20448;-70
2023/08/26 09:55:41;;;;;;;;;;;;;;;23.00;78.38;100503.25;3969124;29;20016;-72
2023/08/26 09:57:46;;;;;;;;;;;;;;;23.03;78.20;100498.03;3967865;29;20353;-72
2023/08/26 09:59:50;;;;;;;;;;;;;;;23.08;77.93;100496.44;3966855;29;20371;-71
2023/08/26 10:01:52;;;;;;;;;;;;;;;23.11;77.80;100494.00;3969214;29;20429;-71
2023/08/26 10:03:54;;;;;;;;;;;;;;;23.15;77.25;100508.91;3968936;29;19991;-71
2023/08/26 10:05:56;;;;;;;;;;;;;;;23.19;76.71;100507.25;3968149;29;20032;-71
2023/08/26 10:07:58;;;;;;;;;;;;;;;23.21;76.61;100499.56;3968612;29;20020;-71
2023/08/26 10:10:02;;;;;;;;;;;;;;;23.23;75.95;100499.31;3967130;29;20016;-70
2023/08/26 10:12:06;;;;;;;;;;;;;;;23.28;75.59;100493.81;3958659;29;20016;-70
2023/08/26 10:14:11;;;;;;;;;;;;;;;23.30;75.36;100491.59;3967080;29;20012;-72
2023/08/26 10:16:14;;;;;;;;;;;;;;;23.33;75.09;100498.53;3965065;29;20353;-71
2023/08/26 10:18:17;;;;;;;;;;;;;;;23.37;74.92;100510.69;3967321;29;20507;-71
2023/08/26 10:20:19;;;;;;;;;;;;;;;23.37;74.66;100499.66;3968571;29;20024;-72
2023/08/26 10:22:21;;;;;;;;;;;;;;;23.41;74.90;100489.72;3971347;29;20361;-72
2023/08/26 10:24:23;;;;;;;;;;;;;;;23.44;74.76;100499.41;3969689;29;19986;-72
2023/08/26 10:26:26;;;;;;;;;;;;;;;23.47;74.27;100496.09;3970093;29;20019;-71
2023/08/26 10:28:28;;;;;;;;;;;;;;;23.50;74.05;100499.13;3970481;29;20047;-72
2023/08/26 10:30:31;;;;;;;;;;;;;;;23.53;74.03;100497.78;3969157;29;20020;-72